Time;durP1;ratioP1;P1;durP2;ratioP2;P2;SDS_P1;SDS_P2;PMS_P1;PMS_P2;Temp;Humidity;BMP_temperature;BMP_pressure;BME280_temperature;BME280_humidity;BME280_pressure;Samples;Min_cycle;Max_cycle;Signal;HPM_P1;HPM_P2
2022/09/21 00:01:38;;;;;;;2.90;1.00;;;;;;;10.56;71.54;98906.74;25213;1313;3026753;-74
2022/09/21 00:04:07;;;;;;;3.80;1.20;;;;;;;11.13;70.48;98902.19;25239;1311;3026827;-73
2022/09/21 00:06:37;;;;;;;3.60;1.40;;;;;;;11.76;68.15;98906.27;25176;1313;3026435;-76
2022/09/21 00:09:07;;;;;;;2.90;1.50;;;;;;;11.77;66.73;98900.59;25205;1312;3067712;-75
2022/09/21 00:11:37;;;;;;;2.10;1.10;;;;;;;11.57;66.71;98898.37;25238;1313;3026860;-76
2022/09/21 00:14:09;;;;;;;2.60;1.30;;;;;;;11.41;66.93;98897.77;25301;1313;3028318;-76
2022/09/21 00:16:40;;;;;;;3.10;1.50;;;;;;;11.28;67.11;98898.36;25177;1313;3070446;-72
2022/09/21 00:19:09;;;;;;;1.70;1.30;;;;;;;11.03;67.89;98896.46;25204;1312;3027404;-75
2022/09/21 00:21:38;;;;;;;3.20;1.40;;;;;;;10.87;68.49;98894.27;25391;1312;3026697;-72
2022/09/21 00:24:07;;;;;;;2.90;1.30;;;;;;;10.73;68.96;98896.30;25400;1312;3026570;-74
2022/09/21 00:26:36;;;;;;;2.60;1.50;;;;;;;10.62;69.16;98902.17;25238;1312;3048575;-75
2022/09/21 00:29:05;;;;;;;2.90;1.50;;;;;;;10.55;69.13;98907.52;25213;1312;3028307;-75
2022/09/21 00:31:34;;;;;;;3.70;1.20;;;;;;;10.36;69.86;98908.97;25167;1312;3067572;-75
2022/09/21 00:34:06;;;;;;;2.50;1.30;;;;;;;10.27;70.22;98906.77;25194;1312;3026548;-74
2022/09/21 00:36:37;;;;;;;2.40;1.20;;;;;;;10.25;70.22;98907.44;25214;1312;3053784;-74
2022/09/21 00:39:08;;;;;;;2.10;1.50;;;;;;;10.19;70.05;98906.98;25174;1312;3026828;-75
2022/09/21 00:41:37;;;;;;;1.80;0.90;;;;;;;10.10;70.89;98903.05;25239;1312;3053317;-74
2022/09/21 00:44:30;;;;;;;4.80;1.10;;;;;;;10.80;69.72;98903.70;25156;1312;3026756;-74
2022/09/21 00:47:09;;;;;;;1.70;1.10;;;;;;;11.44;67.08;98903.34;25205;1312;3069810;-73
2022/09/21 00:49:39;;;;;;;3.90;1.40;;;;;;;11.20;66.69;98899.63;25307;1312;3051743;-76
2022/09/21 00:52:08;;;;;;;2.50;1.40;;;;;;;11.00;66.99;98902.61;25202;1313;3026828;-76
2022/09/21 00:54:44;;;;;;;3.20;1.60;;;;;;;10.67;67.99;98900.77;25199;1312;3026444;-75
2022/09/21 00:57:13;;;;;;;5.50;1.40;;;;;;;10.55;67.87;98905.40;25178;1312;3056206;-76
2022/09/21 00:59:42;;;;;;;3.60;1.40;;;;;;;10.54;67.66;98902.52;25179;1312;3026745;-74
2022/09/21 01:02:14;;;;;;;3.30;1.30;;;;;;;10.31;68.30;98897.05;25191;1315;3056022;-75
2022/09/21 01:04:44;;;;;;;5.10;2.20;;;;;;;10.03;69.80;98895.59;25197;1313;3026388;-75
2022/09/21 01:07:17;;;;;;;1.70;1.20;;;;;;;9.93;69.92;98897.70;25124;1312;3027051;-74
2022/09/21 01:09:48;;;;;;;2.60;1.50;;;;;;;9.91;69.77;98893.46;25151;1312;3054795;-74
2022/09/21 01:12:36;;;;;;;2.80;1.80;;;;;;;9.79;70.23;98898.45;25211;1312;3028987;-73
2022/09/21 01:15:29;;;;;;;3.40;1.70;;;;;;;9.76;70.22;98894.95;25161;1312;3052092;-74
2022/09/21 01:18:28;;;;;;;5.70;2.10;;;;;;;9.72;70.19;98889.26;25195;1312;3053938;-72
2022/09/21 01:21:03;;;;;;;2.40;1.10;;;;;;;9.66;71.36;98893.16;25151;1312;3053272;-76
2022/09/21 01:23:47;;;;;;;3.90;1.40;;;;;;;10.46;69.49;98895.52;25184;1312;3067298;-74
2022/09/21 01:26:40;;;;;;;4.90;2.00;;;;;;;11.00;67.77;98890.02;25194;1312;3048563;-74
2022/09/21 01:29:18;;;;;;;3.70;1.90;;;;;;;10.97;67.10;98885.31;25192;1312;3052725;-75
2022/09/21 01:31:58;;;;;;;7.30;2.30;;;;;;;10.75;67.25;98891.79;25157;1312;3054803;-75
2022/09/21 01:34:38;;;;;;;6.70;2.10;;;;;;;10.35;68.38;98894.73;25212;1312;3057073;-79
2022/09/21 01:37:10;;;;;;;5.40;2.40;;;;;;;10.13;69.04;98896.37;25182;1312;3049626;-78
2022/09/21 01:39:40;;;;;;;6.50;2.40;;;;;;;9.85;69.93;98901.90;25210;1312;3028383;-75
2022/09/21 01:42:09;;;;;;;4.70;2.30;;;;;;;9.76;70.22;98897.26;25201;1312;3026760;-74
2022/09/21 01:44:38;;;;;;;4.30;2.20;;;;;;;9.59;71.13;98897.11;25148;1313;3026466;-75
2022/09/21 01:47:11;;;;;;;5.20;2.50;;;;;;;9.43;71.76;98893.83;25183;1313;3055330;-74
2022/09/21 01:49:44;;;;;;;4.90;1.70;;;;;;;9.32;71.97;98892.38;25180;1312;3026445;-75
2022/09/21 01:52:33;;;;;;;4.80;1.90;;;;;;;9.14;72.97;98898.81;25136;1312;3026331;-73
2022/09/21 01:55:27;;;;;;;2.70;1.30;;;;;;;9.18;72.96;98903.82;25189;1312;3051851;-73
2022/09/21 01:58:04;;;;;;;2.90;1.40;;;;;;;10.02;71.33;98904.95;25197;1312;3051610;-74
2022/09/21 02:00:34;;;;;;;3.40;1.70;;;;;;;10.34;69.55;98905.11;25171;1313;3054829;-73
2022/09/21 02:03:12;;;;;;;3.50;2.00;;;;;;;10.25;69.47;98911.95;25149;1312;3026610;-73
2022/09/21 02:05:42;;;;;;;3.60;2.00;;;;;;;10.08;69.73;98908.41;25202;1312;3052477;-75
2022/09/21 02:08:11;;;;;;;4.60;2.20;;;;;;;9.99;69.61;98913.20;25162;1312;3027163;-73
2022/09/21 02:10:48;;;;;;;5.50;2.50;;;;;;;9.76;70.20;98911.80;25169;1312;3047106;-74
2022/09/21 02:13:19;;;;;;;5.00;2.50;;;;;;;9.55;70.82;98910.85;25162;1313;3054285;-75
2022/09/21 02:16:11;;;;;;;7.00;2.60;;;;;;;9.35;71.39;98915.48;25191;1313;3026812;-75
2022/09/21 02:18:50;;;;;;;4.70;2.30;;;;;;;9.08;72.20;98916.11;25218;1312;3057803;-75
2022/09/21 02:21:28;;;;;;;6.70;2.50;;;;;;;8.78;73.71;98912.05;25164;1313;3049670;-75
2022/09/21 02:24:06;;;;;;;8.10;3.00;;;;;;;8.63;74.14;98914.52;25175;1312;3054863;-74
2022/09/21 02:26:42;;;;;;;3.60;1.80;;;;;;;8.60;74.62;98914.23;25204;1313;3054163;-74
2022/09/21 02:29:20;;;;;;;4.20;1.70;;;;;;;9.16;73.19;98913.70;25188;1313;3068214;-76
2022/09/21 02:32:04;;;;;;;4.30;2.10;;;;;;;9.86;71.51;98912.83;25220;1313;3052966;-75
2022/09/21 02:34:40;;;;;;;4.40;2.30;;;;;;;9.83;70.32;98912.50;25167;1312;3052469;-75
2022/09/21 02:37:22;;;;;;;5.80;2.30;;;;;;;9.62;70.55;98909.69;25202;1313;3052389;-76
2022/09/21 02:40:10;;;;;;;3.60;2.00;;;;;;;9.27;71.63;98917.15;25237;1313;3056238;-77
2022/09/21 02:42:41;;;;;;;5.50;2.40;;;;;;;9.01;72.32;98912.53;25227;1313;3049989;-76
2022/09/21 02:45:17;;;;;;;5.70;2.60;;;;;;;8.83;72.44;98912.82;25196;1313;3029121;-75
2022/09/21 02:47:56;;;;;;;6.50;2.90;;;;;;;8.56;73.62;98918.60;25196;1313;3051042;-76
2022/09/21 02:50:52;;;;;;;5.10;2.60;;;;;;;8.42;74.42;98924.19;25156;1315;3068928;-77
2022/09/21 02:53:24;;;;;;;5.20;2.60;;;;;;;8.35;74.56;98924.89;25196;1313;3049212;-75
2022/09/21 02:55:55;;;;;;;5.30;1.60;;;;;;;8.40;74.11;98926.19;25241;1313;3027679;-76
2022/09/21 02:58:25;;;;;;;3.40;2.00;;;;;;;8.86;73.43;98918.90;25250;1313;3026467;-77
2022/09/21 03:00:55;;;;;;;3.50;2.10;;;;;;;9.23;72.10;98926.68;25243;1312;3026362;-76
2022/09/21 03:03:25;;;;;;;3.70;2.40;;;;;;;9.33;71.55;98924.48;25202;1313;3028741;-76
2022/09/21 03:05:54;;;;;;;6.80;2.70;;;;;;;9.14;71.68;98925.21;25247;1313;3026556;-76
2022/09/21 03:08:25;;;;;;;5.50;2.70;;;;;;;8.94;72.07;98925.59;25191;1313;3027279;-76
2022/09/21 03:10:54;;;;;;;6.10;2.30;;;;;;;8.65;72.98;98928.38;25197;1313;3026775;-76
2022/09/21 03:13:48;;;;;;;8.20;2.80;;;;;;;8.49;73.54;98929.31;25264;1312;3052582;-77
2022/09/21 03:16:17;;;;;;;6.00;2.50;;;;;;;8.28;74.56;98930.94;25177;1312;3026068;-76
2022/09/21 03:18:46;;;;;;;8.00;2.50;;;;;;;8.29;74.25;98926.02;25185;1312;3049216;-76
2022/09/21 03:21:15;;;;;;;5.90;2.50;;;;;;;8.10;75.12;98928.30;25206;1312;3030094;-75
2022/09/21 03:23:44;;;;;;;7.70;2.10;;;;;;;8.00;75.67;98925.59;25230;1312;3055523;-77
2022/09/21 03:26:13;;;;;;;3.70;1.80;;;;;;;8.52;74.64;98926.15;25137;1312;3026522;-76
2022/09/21 03:28:42;;;;;;;4.40;1.70;;;;;;;8.95;72.58;98923.60;25206;1312;3054163;-77
2022/09/21 03:31:12;;;;;;;6.80;2.60;;;;;;;8.96;72.11;98925.64;25206;1312;3027618;-77
2022/09/21 03:33:42;;;;;;;8.70;2.50;;;;;;;8.82;72.39;98923.67;24506;1312;4355484;-77
2022/09/21 03:36:11;;;;;;;9.00;4.40;;;;;;;8.67;72.73;98930.15;25168;1312;3053908;-77
2022/09/21 03:38:41;;;;;;;5.60;3.30;;;;;;;8.41;73.52;98940.13;25141;1312;3027193;-77
2022/09/21 03:41:10;;;;;;;7.40;3.80;;;;;;;8.21;74.39;98941.64;25208;1312;3029629;-76
2022/09/21 03:43:39;;;;;;;6.40;2.90;;;;;;;8.19;74.46;98944.87;25205;1312;3026559;-77
2022/09/21 03:46:08;;;;;;;5.40;2.90;;;;;;;8.10;74.61;98944.70;25212;1312;3056363;-76
2022/09/21 03:48:39;;;;;;;6.40;2.90;;;;;;;8.08;74.97;98944.52;25190;1312;3028106;-76
2022/09/21 03:51:08;;;;;;;3.10;1.70;;;;;;;8.17;74.45;98945.88;25212;1312;3052702;-77
2022/09/21 03:53:39;;;;;;;6.20;1.60;;;;;;;8.77;73.00;98944.93;25218;1313;3027257;-77
2022/09/21 03:56:08;;;;;;;4.30;2.00;;;;;;;9.16;71.63;98946.90;25186;1312;3026233;-77
2022/09/21 03:58:37;;;;;;;10.00;2.20;;;;;;;9.34;71.16;98945.40;25174;1312;3052416;-76
2022/09/21 04:01:06;;;;;;;5.90;2.00;;;;;;;9.41;70.92;98941.34;25172;1313;3026392;-76
2022/09/21 04:03:36;;;;;;;4.80;2.70;;;;;;;9.24;71.05;98948.50;25247;1312;3026338;-76
2022/09/21 04:06:09;;;;;;;13.40;4.40;;;;;;;9.20;71.22;98951.19;25264;1312;3052974;-76
2022/09/21 04:08:39;;;;;;;8.50;3.20;;;;;;;9.08;71.69;98953.16;25257;1313;3030662;-76
2022/09/21 04:11:26;;;;;;;8.50;3.50;;;;;;;8.96;72.11;98949.73;25402;1315;3026907;-76
2022/09/21 04:13:56;;;;;;;7.70;2.70;;;;;;;8.87;72.37;98955.70;25394;1315;3054772;-77
2022/09/21 04:16:25;;;;;;;8.50;3.20;;;;;;;8.73;72.84;98955.30;25358;1315;3026397;-77
2022/09/21 04:18:54;;;;;;;8.10;3.70;;;;;;;8.71;73.08;98957.72;25408;1313;3028768;-69
2022/09/21 04:21:23;;;;;;;8.20;2.40;;;;;;;8.65;73.84;98956.66;25368;1312;3029214;-73
2022/09/21 04:23:52;;;;;;;3.80;1.90;;;;;;;9.13;72.44;98952.86;25304;1313;3057589;-78
2022/09/21 04:26:26;;;;;;;6.00;2.90;;;;;;;9.68;70.52;98955.30;25224;1313;3026641;-78
2022/09/21 04:28:56;;;;;;;4.10;2.50;;;;;;;9.89;69.61;98957.64;25249;1313;3051270;-78
2022/09/21 04:31:29;;;;;;;4.90;2.50;;;;;;;9.87;69.55;98957.41;25176;1313;3052859;-79
2022/09/21 04:33:58;;;;;;;7.20;3.20;;;;;;;9.67;70.05;98959.05;25292;1313;3026868;-79
2022/09/21 04:36:27;;;;;;;6.70;3.10;;;;;;;9.50;70.72;98958.93;25205;1313;3052239;-76
2022/09/21 04:38:57;;;;;;;5.70;3.00;;;;;;;9.35;71.49;98958.45;25243;1313;3028445;-76
2022/09/21 04:41:26;;;;;;;10.00;4.20;;;;;;;9.26;71.83;98954.46;25264;1312;3026546;-77
2022/09/21 04:43:55;;;;;;;7.70;4.10;;;;;;;9.17;72.32;98951.89;25360;1313;3028281;-76
2022/09/21 04:46:24;;;;;;;8.40;4.00;;;;;;;9.20;72.65;98952.95;25294;1313;3026653;-77
2022/09/21 04:48:53;;;;;;;10.10;4.00;;;;;;;9.19;72.65;98951.22;25183;1313;3067571;-76
2022/09/21 04:51:22;;;;;;;9.30;2.50;;;;;;;9.20;72.96;98954.69;25275;1313;3027496;-72
2022/09/21 04:53:51;;;;;;;4.60;2.70;;;;;;;9.79;71.73;98954.41;25209;1312;3050236;-74
2022/09/21 04:56:20;;;;;;;6.00;2.90;;;;;;;10.59;69.69;98957.00;25196;1313;3026436;-74
2022/09/21 04:58:49;;;;;;;5.40;3.20;;;;;;;10.83;68.60;98957.13;25174;1313;3054782;-73
2022/09/21 05:01:18;;;;;;;4.90;2.70;;;;;;;10.73;68.25;98959.71;25252;1313;3026710;-73
2022/09/21 05:03:47;;;;;;;4.90;3.10;;;;;;;10.72;68.14;98959.45;25162;1312;3049234;-73
2022/09/21 05:06:16;;;;;;;5.30;3.00;;;;;;;10.43;68.47;98962.08;25163;1312;3026755;-74
2022/09/21 05:11:33;;;;;;;8.70;3.50;;;;;;;10.06;70.20;98957.16;25197;1312;3052092;-74
2022/09/21 05:14:03;;;;;;;6.50;3.50;;;;;;;10.05;70.70;98962.00;25169;1313;3027094;-76
2022/09/21 05:16:33;;;;;;;6.50;3.40;;;;;;;9.97;70.81;98964.09;25130;1312;3026741;-76
2022/09/21 05:19:02;;;;;;;5.30;3.10;;;;;;;9.90;71.76;98962.61;25226;1312;3026155;-75
2022/09/21 05:21:31;;;;;;;4.90;2.90;;;;;;;10.01;71.59;98960.16;25246;1312;3053443;-76
2022/09/21 05:24:00;;;;;;;4.10;2.00;;;;;;;10.11;71.45;98963.68;25232;1312;3026663;-76
2022/09/21 05:26:30;;;;;;;5.50;2.40;;;;;;;10.56;70.26;98967.20;25208;1313;3052617;-77
2022/09/21 05:28:59;;;;;;;7.30;2.90;;;;;;;11.24;68.70;98969.10;25180;1312;3026574;-76
2022/09/21 05:31:49;;;;;;;5.60;2.50;;;;;;;11.03;67.62;98964.10;25226;1313;3056606;-75
2022/09/21 05:34:52;;;;;;;5.60;2.60;;;;;;;11.23;67.54;98960.94;25190;1313;3049854;-75
2022/09/21 05:37:47;;;;;;;4.00;2.50;;;;;;;11.05;67.75;98966.61;25206;1313;3052773;-77
2022/09/21 05:40:16;;;;;;;6.10;2.90;;;;;;;11.03;67.68;98961.31;25261;1313;3054418;-77
2022/09/21 05:42:46;;;;;;;6.60;3.00;;;;;;;10.88;68.53;98961.45;25224;1313;3028263;-76
2022/09/21 05:45:16;;;;;;;6.10;2.80;;;;;;;10.91;68.59;98957.94;25166;1312;3029711;-77
2022/09/21 05:48:10;;;;;;;5.50;2.80;;;;;;;10.97;68.48;98959.28;25254;1313;3049415;-78
2022/09/21 05:50:40;;;;;;;5.30;3.20;;;;;;;11.09;68.19;98961.44;25192;1313;3072372;-76
2022/09/21 05:53:24;;;;;;;5.10;2.70;;;;;;;10.99;67.98;98969.79;25173;1316;3027390;-74
2022/09/21 05:55:57;;;;;;;5.40;2.60;;;;;;;10.84;67.92;98975.41;25135;1312;3055142;-76
2022/09/21 05:58:38;;;;;;;8.70;3.40;;;;;;;10.92;67.95;98974.89;25217;1312;3027665;-75
2022/09/21 06:01:23;;;;;;;8.60;3.70;;;;;;;10.89;68.59;98972.61;25140;1312;3056191;-77
2022/09/21 06:03:52;;;;;;;6.30;3.40;;;;;;;11.07;67.99;98975.23;25212;1313;3050094;-76
2022/09/21 06:06:21;;;;;;;7.40;3.40;;;;;;;11.06;67.90;98976.88;25193;1315;3026370;-74
2022/09/21 06:08:50;;;;;;;5.80;3.10;;;;;;;11.07;67.89;98982.40;25188;1312;3055623;-76
2022/09/21 06:11:20;;;;;;;4.90;2.80;;;;;;;11.08;67.76;98980.75;25170;1312;3027353;-75
2022/09/21 06:13:49;;;;;;;8.20;2.70;;;;;;;11.20;67.35;98980.98;25194;1312;3026887;-74
2022/09/21 06:16:18;;;;;;;3.80;2.60;;;;;;;11.04;67.87;98986.65;25208;1314;3058156;-77
2022/09/21 06:18:47;;;;;;;6.60;2.90;;;;;;;11.07;68.26;98982.92;25190;1312;3028789;-76
2022/09/21 06:21:17;;;;;;;5.70;3.30;;;;;;;11.10;68.02;98985.16;25127;1313;3054868;-78
2022/09/21 06:23:46;;;;;;;4.90;2.60;;;;;;;10.96;68.45;98983.52;25256;1312;3026766;-76
2022/09/21 06:26:16;;;;;;;4.70;2.70;;;;;;;10.82;68.87;98989.55;25164;1312;3050560;-79
2022/09/21 06:28:45;;;;;;;5.20;3.40;;;;;;;10.73;69.72;98988.44;25199;1312;3025991;-77
2022/09/21 06:31:14;;;;;;;2.70;1.80;;;;;;;10.84;69.81;98986.48;25181;1312;3026321;-76
2022/09/21 06:33:43;;;;;;;3.10;1.80;;;;;;;11.42;68.48;98983.45;25214;1312;3051762;-78
2022/09/21 06:36:12;;;;;;;3.90;2.50;;;;;;;12.18;65.41;98989.35;25184;1312;3026607;-77
2022/09/21 06:38:40;;;;;;;4.30;2.40;;;;;;;12.27;65.18;98985.32;25135;1315;3051476;-77
2022/09/21 06:41:10;;;;;;;4.50;2.50;;;;;;;12.07;65.16;98988.40;25201;1312;3027170;-74
2022/09/21 06:43:40;;;;;;;3.50;2.50;;;;;;;11.95;65.87;98989.44;25164;1313;3027494;-78
2022/09/21 06:46:09;;;;;;;5.40;2.50;;;;;;;12.08;65.83;98992.52;25221;1312;3026355;-77
2022/09/21 06:48:39;;;;;;;5.70;2.80;;;;;;;12.19;65.77;98993.96;25195;1312;3054584;-76
2022/09/21 06:51:08;;;;;;;5.90;2.50;;;;;;;11.94;65.68;98999.17;25204;1313;3029732;-77
2022/09/21 06:53:38;;;;;;;6.50;3.40;;;;;;;12.03;65.61;99005.20;25238;1313;3049103;-76
2022/09/21 06:56:07;;;;;;;5.00;2.90;;;;;;;11.98;66.24;99000.68;25194;1313;3027815;-77
2022/09/21 06:58:37;;;;;;;4.50;2.70;;;;;;;12.01;66.33;98995.84;25174;1313;3068949;-75
2022/09/21 07:01:07;;;;;;;4.00;2.70;;;;;;;12.01;66.61;98999.04;25211;1313;3026129;-76
2022/09/21 07:03:37;;;;;;;4.70;2.70;;;;;;;11.94;66.32;99001.98;25243;1313;3027153;-76
2022/09/21 07:06:10;;;;;;;4.90;3.30;;;;;;;11.97;66.02;98998.78;25255;1313;3026096;-72
2022/09/21 07:08:39;;;;;;;5.60;2.90;;;;;;;11.87;66.71;98993.51;25161;1313;3030226;-76
2022/09/21 07:11:08;;;;;;;5.30;2.50;;;;;;;12.13;66.14;98997.58;25210;1313;3026654;-74
2022/09/21 07:13:38;;;;;;;3.80;2.00;;;;;;;12.10;65.22;99001.90;25161;1313;3054992;-71
2022/09/21 07:16:08;;;;;;;4.90;2.20;;;;;;;12.30;64.24;99002.86;25247;1312;3029815;-77
2022/09/21 07:18:38;;;;;;;4.50;2.20;;;;;;;12.29;64.44;99003.27;25224;1313;3026599;-77
2022/09/21 07:21:08;;;;;;;5.70;2.90;;;;;;;12.27;63.67;99001.84;25287;1313;3027094;-74
2022/09/21 07:23:37;;;;;;;3.80;2.50;;;;;;;12.24;63.98;98999.99;25278;1313;3026424;-76
2022/09/21 07:26:09;;;;;;;4.00;2.90;;;;;;;12.22;64.16;99008.00;25196;1313;3026848;-78
2022/09/21 07:28:39;;;;;;;5.70;2.20;;;;;;;12.13;64.96;99008.86;25212;1313;3053077;-77
2022/09/21 07:31:13;;;;;;;4.00;2.40;;;;;;;12.17;64.94;99012.39;25192;1312;3026517;-76
2022/09/21 07:33:43;;;;;;;6.70;2.40;;;;;;;12.05;65.34;99008.59;25304;1312;3049652;-79
2022/09/21 07:36:12;;;;;;;4.80;2.20;;;;;;;11.95;65.33;99008.04;25228;1312;3027731;-77
2022/09/21 07:38:42;;;;;;;3.60;2.20;;;;;;;12.06;65.53;99009.02;25168;1312;3026994;-77
2022/09/21 07:41:12;;;;;;;4.30;2.90;;;;;;;12.17;65.21;99009.06;25171;1313;3026529;-78
2022/09/21 07:43:41;;;;;;;4.40;2.70;;;;;;;12.13;65.49;99013.59;25204;1312;3026355;-77
2022/09/21 07:46:13;;;;;;;2.80;1.90;;;;;;;12.01;65.81;99009.36;25259;1313;3027354;-77
2022/09/21 07:48:43;;;;;;;3.20;2.20;;;;;;;11.95;64.83;99005.28;25225;1313;3026904;-76
2022/09/21 07:51:12;;;;;;;5.20;2.60;;;;;;;12.05;64.42;99005.05;25293;1312;3026659;-77
2022/09/21 07:53:45;;;;;;;3.10;2.00;;;;;;;12.14;63.15;99004.07;25252;1313;3051627;-77
2022/09/21 07:56:15;;;;;;;3.40;2.10;;;;;;;12.38;62.17;99017.52;25230;1312;3026554;-80
2022/09/21 08:01:36;;;;;;;4.60;2.60;;;;;;;12.62;61.76;99008.89;25242;1312;3049846;-76
2022/09/21 08:04:07;;;;;;;7.10;3.30;;;;;;;12.82;62.22;99010.68;25195;1313;3027680;-77
2022/09/21 08:06:38;;;;;;;4.40;2.80;;;;;;;12.96;61.76;99021.52;25296;1313;3026298;-76
2022/09/21 08:09:07;;;;;;;5.10;2.80;;;;;;;12.90;61.59;99017.27;25188;1312;3027649;-74
2022/09/21 08:11:43;;;;;;;5.60;3.10;;;;;;;12.81;61.70;99015.84;25223;1312;3026817;-75
2022/09/21 08:14:18;;;;;;;5.10;2.60;;;;;;;12.67;61.29;99011.96;25200;1312;3054236;-77
2022/09/21 08:16:47;;;;;;;3.60;2.60;;;;;;;12.83;61.06;99010.79;25210;1312;3051704;-76
2022/09/21 08:19:16;;;;;;;5.20;2.80;;;;;;;12.92;60.73;99015.17;25222;1312;3026656;-76
2022/09/21 08:21:48;;;;;;;3.80;2.40;;;;;;;12.82;60.86;99014.73;25201;1312;3026003;-76
2022/09/21 08:24:17;;;;;;;6.00;2.50;;;;;;;12.72;61.40;99013.36;25264;1312;3053139;-76
2022/09/21 08:26:46;;;;;;;4.30;2.70;;;;;;;12.68;61.91;99014.42;25239;1312;3028883;-78
2022/09/21 08:29:15;;;;;;;3.10;2.60;;;;;;;12.85;61.56;99017.69;25224;1312;3051819;-76
2022/09/21 08:31:45;;;;;;;8.10;2.30;;;;;;;12.87;61.18;99014.51;25210;1312;3026418;-75
2022/09/21 08:34:15;;;;;;;4.20;2.80;;;;;;;12.87;61.09;99020.98;25216;1312;3026499;-76
2022/09/21 08:36:44;;;;;;;3.00;2.70;;;;;;;12.90;61.11;99009.38;25295;1312;3026341;-77
2022/09/21 08:39:15;;;;;;;4.40;3.10;;;;;;;13.00;61.13;99005.09;25218;1313;3055024;-74
2022/09/21 08:41:50;;;;;;;2.90;2.60;;;;;;;12.95;60.92;98998.57;25296;1312;3028597;-74
2022/09/21 08:44:27;;;;;;;5.60;2.70;;;;;;;12.96;61.12;98996.41;25280;1312;3052943;-74
2022/09/21 08:47:02;;;;;;;4.70;2.90;;;;;;;13.09;60.94;98989.61;25291;1312;3055025;-74
2022/09/21 08:49:32;;;;;;;4.60;2.90;;;;;;;13.14;61.19;98990.83;25187;1315;3056559;-76
2022/09/21 08:52:04;;;;;;;6.00;2.30;;;;;;;13.34;60.72;98991.67;25275;1313;3028620;-75
2022/09/21 08:54:45;;;;;;;4.30;2.50;;;;;;;13.70;59.90;98991.63;25169;1313;3051521;-77
2022/09/21 08:57:14;;;;;;;3.90;3.10;;;;;;;13.98;58.83;98993.23;25252;1313;3054367;-73
2022/09/21 08:59:45;;;;;;;6.00;3.10;;;;;;;14.19;58.18;98996.98;25234;1312;3027620;-75
2022/09/21 09:02:42;;;;;;;3.90;2.30;;;;;;;14.34;57.50;98989.39;25237;1312;3026904;-75
2022/09/21 09:05:43;;;;;;;6.10;2.70;;;;;;;14.42;56.35;98983.42;25192;1312;3054669;-74
2022/09/21 09:08:33;;;;;;;3.20;2.10;;;;;;;14.46;55.60;98982.55;25211;1315;3055024;-77
2022/09/21 09:11:21;;;;;;;4.80;2.20;;;;;;;14.44;54.73;98980.95;25276;1313;3054981;-70
2022/09/21 09:14:10;;;;;;;3.30;1.80;;;;;;;14.50;55.17;98979.05;25224;1313;3052855;-73
2022/09/21 09:17:08;;;;;;;3.80;1.60;;;;;;;14.80;54.07;98984.19;25352;1312;3054416;-75
2022/09/21 09:19:37;;;;;;;3.20;1.70;;;;;;;14.98;52.99;98974.64;25203;1313;3054960;-73
2022/09/21 09:22:09;;;;;;;3.60;1.50;;;;;;;14.98;52.69;98977.98;25282;1313;3026271;-76
2022/09/21 09:24:51;;;;;;;2.40;2.00;;;;;;;15.06;53.19;98974.66;25413;1312;3027018;-77
2022/09/21 09:27:27;;;;;;;4.70;1.90;;;;;;;14.87;52.95;98971.00;25239;1312;3052042;-76
2022/09/21 09:30:12;;;;;;;3.20;1.80;;;;;;;14.84;52.97;98972.33;25268;1312;3053633;-75
2022/09/21 09:33:09;;;;;;;4.00;2.00;;;;;;;14.87;53.44;98978.59;25195;1313;3057326;-74
2022/09/21 09:36:00;;;;;;;3.40;1.60;;;;;;;14.85;53.26;98976.84;25251;1313;3049833;-74
2022/09/21 09:38:41;;;;;;;1.20;1.10;;;;;;;15.04;51.91;98978.73;25212;1312;3055061;-75
2022/09/21 09:41:35;;;;;;;4.40;1.50;;;;;;;14.96;51.63;98977.36;25213;1313;3054361;-76
2022/09/21 09:44:06;;;;;;;2.60;1.40;;;;;;;15.19;51.94;98979.41;25214;1313;3069053;-76
2022/09/21 09:46:38;;;;;;;2.30;1.10;;;;;;;15.42;51.46;98984.05;25189;1313;3027217;-76
2022/09/21 09:49:13;;;;;;;2.70;1.90;;;;;;;15.58;51.00;98977.20;25215;1312;3028799;-76
2022/09/21 09:51:42;;;;;;;1.50;1.10;;;;;;;15.68;50.31;98969.62;25257;1314;3052521;-75
2022/09/21 09:54:16;;;;;;;2.90;1.50;;;;;;;15.83;50.23;98971.04;25206;1312;3026456;-76
2022/09/21 09:56:45;;;;;;;1.80;1.50;;;;;;;16.11;49.75;98976.16;25216;1312;3052653;-76
2022/09/21 09:59:42;;;;;;;2.30;1.40;;;;;;;16.06;48.87;98979.66;25200;1315;3028238;-76
2022/09/21 10:02:16;;;;;;;1.70;1.20;;;;;;;16.07;48.54;98983.84;25163;1313;3049193;-75
2022/09/21 10:05:05;;;;;;;1.90;1.30;;;;;;;16.06;48.45;98985.61;25182;1315;3052735;-76
2022/09/21 10:07:36;;;;;;;6.10;1.50;;;;;;;15.74;49.20;98991.14;25229;1312;3053303;-77
2022/09/21 10:10:32;;;;;;;3.10;1.50;;;;;;;15.68;49.51;98989.52;25160;1314;3026800;-70
2022/09/21 10:13:07;;;;;;;2.80;1.40;;;;;;;15.81;49.73;98986.70;25138;1315;3053086;-73
2022/09/21 10:15:48;;;;;;;3.30;1.50;;;;;;;15.87;49.48;98987.36;25161;1313;3052101;-74
2022/09/21 10:18:37;;;;;;;3.00;1.40;;;;;;;15.60;49.64;98988.52;25193;1313;3051606;-74
2022/09/21 10:21:16;;;;;;;3.10;1.70;;;;;;;15.37;50.10;98995.07;25644;1312;3069242;-74
2022/09/21 10:23:56;;;;;;;3.60;1.70;;;;;;;15.48;49.91;98999.48;25216;1312;3051644;-72
2022/09/21 10:26:50;;;;;;;4.80;2.20;;;;;;;15.38;50.16;99002.39;25198;1313;3055031;-73
2022/09/21 10:29:21;;;;;;;2.60;1.70;;;;;;;15.33;50.01;99000.73;25181;1313;3052935;-72
2022/09/21 10:32:02;;;;;;;3.30;1.70;;;;;;;15.36;50.49;99004.06;25155;1313;3031064;-73
2022/09/21 10:34:37;;;;;;;3.30;1.90;;;;;;;15.35;50.68;99005.37;25153;1312;3050475;-73
2022/09/21 10:37:25;;;;;;;3.60;2.10;;;;;;;15.28;50.91;99013.04;25169;1312;3026357;-70
2022/09/21 10:39:54;;;;;;;6.00;1.80;;;;;;;15.30;50.93;99008.23;25252;1313;3054594;-73
2022/09/21 10:42:23;;;;;;;4.30;1.80;;;;;;;15.51;50.97;99006.02;25126;1313;3027160;-72
2022/09/21 10:45:02;;;;;;;2.80;1.80;;;;;;;15.55;50.46;99005.16;25201;1313;3053435;-72
2022/09/21 10:47:39;;;;;;;3.70;2.10;;;;;;;15.66;49.83;99002.79;25198;1313;3052149;-74
2022/09/21 10:50:23;;;;;;;3.40;1.80;;;;;;;15.65;49.47;99006.41;25174;1312;3068951;-72
2022/09/21 10:53:21;;;;;;;4.80;2.20;;;;;;;15.64;49.73;99006.66;25214;1312;3048767;-71
2022/09/21 10:56:07;;;;;;;4.10;1.90;;;;;;;15.82;49.82;99005.66;25191;1313;3052082;-70
2022/09/21 10:58:38;;;;;;;1.80;1.50;;;;;;;15.81;48.66;99010.86;25169;1313;3054073;-72
2022/09/21 11:01:12;;;;;;;2.60;2.00;;;;;;;15.70;49.05;99010.05;25142;1312;3026530;-73
2022/09/21 11:04:02;;;;;;;4.00;1.60;;;;;;;15.79;49.21;99011.36;25148;1313;3049565;-73
2022/09/21 11:06:39;;;;;;;2.60;2.00;;;;;;;15.77;49.00;99014.70;25200;1313;3052713;-72
2022/09/21 11:09:13;;;;;;;3.80;1.60;;;;;;;15.85;48.75;99014.73;25199;1313;3055880;-73
2022/09/21 11:11:48;;;;;;;1.80;1.40;;;;;;;15.85;48.59;99024.27;25148;1313;3069728;-73
2022/09/21 11:14:52;;;;;;;2.40;1.90;;;;;;;15.78;48.25;99012.84;25185;1313;3049685;-73
2022/09/21 11:17:33;;;;;;;2.10;1.50;;;;;;;15.64;48.66;99013.77;25168;1313;3051416;-71
2022/09/21 11:20:13;;;;;;;2.30;1.50;;;;;;;15.63;49.03;99016.64;25153;1313;3055184;-72
2022/09/21 11:23:01;;;;;;;3.40;1.80;;;;;;;15.68;49.28;99021.84;25194;1315;3057208;-72
2022/09/21 11:25:41;;;;;;;3.70;1.80;;;;;;;15.57;49.08;99025.15;25174;1316;3052258;-72
2022/09/21 11:28:19;;;;;;;3.60;2.00;;;;;;;15.61;49.00;99026.02;25158;1316;3056190;-71
2022/09/21 11:31:19;;;;;;;4.80;2.60;;;;;;;15.68;49.26;99020.66;25197;1315;3051309;-72
2022/09/21 11:34:18;;;;;;;2.60;1.80;;;;;;;15.57;49.69;99024.08;25130;1315;3071153;-72
2022/09/21 11:37:12;;;;;;;3.80;1.90;;;;;;;15.61;49.95;99025.83;25117;1315;3050541;-71
2022/09/21 11:40:02;;;;;;;2.30;1.50;;;;;;;15.54;50.11;99026.39;25156;1315;3055437;-69
2022/09/21 11:43:07;;;;;;;2.00;1.40;;;;;;;15.55;49.56;99029.67;25186;1315;3055587;-73
2022/09/21 11:46:00;;;;;;;4.60;2.10;;;;;;;15.46;49.30;99032.45;24954;1324;3059034;-72
2022/09/21 11:49:07;;;;;;;5.30;1.90;;;;;;;15.43;49.76;99027.93;25149;1315;3049558;-71
2022/09/21 11:51:57;;;;;;;1.90;1.40;;;;;;;15.41;49.62;99035.51;25110;1315;3056228;-72
2022/09/21 11:54:55;;;;;;;1.40;1.10;;;;;;;15.11;49.67;99034.36;25193;1315;3056573;-75
2022/09/21 11:57:33;;;;;;;2.50;1.40;;;;;;;15.26;49.15;99028.33;25222;1316;3071058;-73
2022/09/21 12:00:19;;;;;;;2.80;1.40;;;;;;;15.36;49.60;99026.05;25190;1315;3049509;-76
2022/09/21 12:02:50;;;;;;;3.20;1.20;;;;;;;15.54;48.95;99025.88;25235;1315;3053078;-75